Live weather conditions from Medfieldweather.com will resume once site maintenance is completed. All other data is up to date.

^^
**For data prior to May 25, 2012 you must select 'Medfield' from the drop down list. This station relocated from Medfield to Millis in May 2012, less than 5 miles distant. For current data select 'Millis' from the dropdown list.
Medfield, MA Historical Weather Data
Daily Summary for January 2, 2012 Units:  English    Metric   Both
« Previous Day
Next Day »
Daily Weekly Monthly Yearly Custom
  High: Low: Average:
Temperature: 48.9 °F 31.9 °F 40.5 °F
Dew Point: 48.1 °F 17.0 °F 28.7 °F
Humidity: 97% 36% 65%
Wind Speed: 9.6mph 0.1mph 2mph
Wind Gust: 20.7mph - -
Wind- - WSW
Pressure: 29.70 in 29.55 in -
Precipitation: 0.03 in    
Historical Graphs
 
 
Tabular Data for January 2, 2012
Time Temperature Dew Point Pressure Wind Wind Speed Wind Gust Humidity Rainfall Rate (Hourly)
00:00 48.7 °F 47.9 °F 29.65 in SE 2.7 mph 4.0 mph 97% 0.00 in
00:05 48.8 °F 48.0 °F 29.64 in South 1.9 mph 3.4 mph 97% 0.00 in
00:10 48.7 °F 47.9 °F 29.64 in SSE 1.9 mph 3.4 mph 97% 0.00 in
00:15 48.7 °F 47.9 °F 29.64 in South 1.7 mph 3.4 mph 97% 0.01 in
00:20 48.6 °F 47.8 °F 29.64 in SSE 1.9 mph 3.4 mph 97% 0.01 in
00:25 48.6 °F 47.8 °F 29.63 in South 2.0 mph 3.4 mph 97% 0.01 in
00:30 48.6 °F 47.8 °F 29.63 in SSW 1.3 mph 2.3 mph 97% 0.01 in
00:35 48.6 °F 47.8 °F 29.63 in SW 1.3 mph 2.3 mph 97% 0.01 in
00:36 48.6 °F 47.8 °F 29.63 in SSW 1.4 mph 2.3 mph 97% 0.01 in
00:41 48.6 °F 47.8 °F 29.62 in SSW 0.1 mph 2.3 mph 97% 0.01 in
00:46 48.7 °F 47.9 °F 29.62 in South 1.6 mph 2.3 mph 97% 0.01 in
00:51 48.6 °F 47.8 °F 29.62 in South 0.9 mph 2.3 mph 97% 0.01 in
00:56 48.7 °F 47.9 °F 29.61 in South 1.5 mph 2.3 mph 97% 0.01 in
01:01 48.7 °F 47.9 °F 29.61 in SSE 0.7 mph 2.3 mph 97% 0.01 in
01:06 48.8 °F 48.0 °F 29.60 in SW 0.5 mph 1.1 mph 97% 0.01 in
01:11 48.9 °F 48.1 °F 29.60 in SSW 1.4 mph 2.3 mph 97% 0.00 in
01:16 48.9 °F 48.1 °F 29.61 in SSW 1.0 mph 2.3 mph 97% 0.01 in
01:21 48.9 °F 48.1 °F 29.60 in South 0.9 mph 2.3 mph 97% 0.01 in
01:26 48.9 °F 48.1 °F 29.60 in South 1.4 mph 2.3 mph 97% 0.01 in
01:31 48.9 °F 48.1 °F 29.60 in SSE 1.4 mph 2.3 mph 97% 0.01 in
01:36 48.9 °F 48.1 °F 29.60 in Calm     97% 0.01 in
01:41 48.8 °F 48.0 °F 29.60 in Calm     97% 0.01 in
01:46 48.8 °F 48.0 °F 29.60 in South 0.8 mph 2.3 mph 97% 0.01 in
01:51 48.8 °F 48.0 °F 29.60 in South 1.4 mph 3.4 mph 97% 0.01 in
01:56 48.8 °F 48.0 °F 29.59 in SSE 1.6 mph 2.3 mph 97% 0.01 in
02:01 48.9 °F 48.1 °F 29.58 in WSW 0.4 mph 2.3 mph 97% 0.01 in
02:06 48.8 °F 48.0 °F 29.58 in South 1.3 mph 2.3 mph 97% 0.01 in
02:11 48.6 °F 47.8 °F 29.58 in South 1.5 mph 2.3 mph 97% 0.01 in
02:16 48.4 °F 47.6 °F 29.58 in SSE 0.5 mph 2.3 mph 97% 0.00 in
02:21 48.2 °F 47.4 °F 29.58 in SSW 0.6 mph 1.1 mph 97% 0.00 in
02:26 47.9 °F 47.1 °F 29.58 in South 1.6 mph 2.3 mph 97% 0.00 in
02:31 47.9 °F 47.1 °F 29.57 in South 1.0 mph 2.3 mph 97% 0.00 in
02:36 47.9 °F 47.1 °F 29.57 in SSW 0.9 mph 2.3 mph 97% 0.00 in
02:41 47.9 °F 47.1 °F 29.57 in SW 1.0 mph 2.3 mph 97% 0.00 in
02:46 48.0 °F 47.2 °F 29.57 in Calm     97% 0.00 in
02:51 47.9 °F 47.1 °F 29.57 in SSW 0.4 mph 2.3 mph 97% 0.00 in
02:56 47.9 °F 47.1 °F 29.57 in SSW 0.2 mph 1.1 mph 97% 0.00 in
03:01 47.9 °F 47.1 °F 29.57 in South 1.3 mph 2.3 mph 97% 0.00 in
03:06 47.9 °F 47.1 °F 29.57 in South 0.6 mph 3.0 mph 97% 0.00 in
03:11 48.1 °F 47.3 °F 29.56 in SE 1.4 mph 2.3 mph 97% 0.00 in
03:16 48.1 °F 47.3 °F 29.56 in SSW 1.0 mph 2.3 mph 97% 0.00 in
03:21 47.9 °F 47.1 °F 29.56 in SSW 1.3 mph 2.3 mph 97% 0.00 in
03:26 47.8 °F 47.0 °F 29.56 in SW 1.5 mph 2.3 mph 97% 0.00 in
03:31 47.8 °F 47.0 °F 29.56 in SSE 1.2 mph 2.3 mph 97% 0.00 in
03:36 47.6 °F 46.8 °F 29.55 in South 1.4 mph 2.3 mph 97% 0.00 in
03:41 47.4 °F 46.6 °F 29.55 in SSW 1.6 mph 2.3 mph 97% 0.00 in
03:46 47.2 °F 46.4 °F 29.55 in SSW 1.1 mph 2.3 mph 97% 0.00 in
03:51 46.9 °F 46.1 °F 29.55 in South 0.3 mph 1.1 mph 97% 0.00 in
03:56 46.9 °F 46.1 °F 29.55 in SW 1.2 mph 3.4 mph 97% 0.00 in
04:01 46.8 °F 46.0 °F 29.55 in SSW 1.4 mph 2.3 mph 97% 0.00 in
04:06 46.7 °F 45.9 °F 29.56 in SSW 1.7 mph 2.3 mph 97% 0.00 in
04:11 46.6 °F 45.8 °F 29.56 in South 0.7 mph 2.3 mph 97% 0.00 in
04:16 46.7 °F 45.9 °F 29.56 in SSW 0.4 mph 2.3 mph 97% 0.00 in
04:21 46.7 °F 45.9 °F 29.56 in SSW 1.3 mph 4.0 mph 97% 0.00 in
04:26 46.7 °F 45.9 °F 29.56 in SW 1.1 mph 2.3 mph 97% 0.00 in
04:31 46.7 °F 45.9 °F 29.56 in NW 0.9 mph 3.0 mph 97% 0.00 in
04:36 45.4 °F 39.3 °F 29.56 in WNW 6.1 mph 18.4 mph 79% 0.01 in
04:41 43.9 °F 37.8 °F 29.58 in NW 5.2 mph 11.5 mph 79% 0.01 in
04:46 43.4 °F 37.0 °F 29.58 in NW 4.9 mph 10.0 mph 78% 0.01 in
04:51 42.9 °F 36.2 °F 29.58 in West 4.7 mph 13.8 mph 77% 0.01 in
04:56 42.7 °F 35.3 °F 29.58 in NW 5.9 mph 11.5 mph 75% 0.01 in
05:01 42.5 °F 34.8 °F 29.58 in WNW 7.1 mph 11.5 mph 74% 0.01 in
05:06 42.2 °F 34.5 °F 29.57 in NW 6.1 mph 10.3 mph 74% 0.01 in
05:11 41.9 °F 33.9 °F 29.57 in West 2.0 mph 3.4 mph 73% 0.01 in
05:16 41.6 °F 33.9 °F 29.57 in NW 2.8 mph 4.6 mph 74% 0.01 in
05:21 41.4 °F 34.1 °F 29.57 in NW 2.9 mph 7.0 mph 75% 0.01 in
05:26 41.2 °F 33.5 °F 29.58 in WNW 4.5 mph 6.0 mph 74% 0.01 in
05:31 41.3 °F 33.6 °F 29.58 in NW 4.3 mph 6.9 mph 74% 0.01 in
05:36 41.4 °F 33.0 °F 29.58 in WNW 3.1 mph 5.0 mph 72% 0.00 in
05:41 41.4 °F 33.0 °F 29.57 in NW 1.5 mph 4.0 mph 72% 0.00 in
05:46 41.3 °F 33.0 °F 29.57 in NW 2.4 mph 6.0 mph 72% 0.00 in
05:51 41.1 °F 33.1 °F 29.57 in West 1.3 mph 3.4 mph 73% 0.00 in
05:56 40.9 °F 33.2 °F 29.58 in Calm   1.1 mph 74% 0.00 in
06:01 40.8 °F 34.1 °F 29.58 in WSW 0.3 mph 2.3 mph 77% 0.00 in
06:06 40.5 °F 33.9 °F 29.59 in SW 0.1 mph 1.1 mph 77% 0.00 in
06:11 40.3 °F 34.0 °F 29.58 in Calm     78% 0.00 in
06:16 40.2 °F 33.6 °F 29.59 in South 0.7 mph 2.3 mph 77% 0.00 in
06:21 40.2 °F 33.9 °F 29.58 in SE 0.2 mph 1.1 mph 78% 0.00 in
06:26 40.0 °F 33.7 °F 29.58 in Calm     78% 0.00 in
06:31 39.9 °F 33.9 °F 29.58 in South 0.7 mph 2.3 mph 79% 0.00 in
06:36 39.8 °F 33.8 °F 29.58 in Calm     79% 0.00 in
06:41 39.6 °F 33.6 °F 29.58 in SSW 0.4 mph 2.3 mph 79% 0.00 in
06:46 39.3 °F 33.6 °F 29.58 in Calm   1.1 mph 80% 0.00 in
06:51 38.8 °F 33.8 °F 29.58 in South 0.9 mph 2.3 mph 82% 0.00 in
06:56 38.5 °F 33.5 °F 29.58 in Calm     82% 0.00 in
07:01 38.2 °F 33.5 °F 29.58 in South 0.2 mph 2.3 mph 83% 0.00 in
07:06 37.9 °F 33.5 °F 29.58 in South 0.7 mph 2.3 mph 84% 0.00 in
07:11 38.0 °F 33.6 °F 29.58 in South 0.4 mph 2.3 mph 84% 0.00 in
07:16 37.9 °F 33.2 °F 29.58 in Calm   1.1 mph 83% 0.00 in
07:21 37.8 °F 33.4 °F 29.58 in SSW 0.3 mph 1.1 mph 84% 0.00 in
07:26 37.7 °F 33.3 °F 29.58 in SSE 0.3 mph 1.0 mph 84% 0.00 in
07:31 37.5 °F 33.4 °F 29.58 in WSW 0.5 mph 1.1 mph 85% 0.00 in
07:36 37.6 °F 33.5 °F 29.58 in SSE 0.6 mph 2.3 mph 85% 0.00 in
07:41 37.9 °F 33.5 °F 29.58 in WSW 0.2 mph 2.3 mph 84% 0.00 in
07:46 37.9 °F 33.5 °F 29.58 in Calm   2.3 mph 84% 0.00 in
07:51 38.1 °F 33.7 °F 29.58 in SSW 1.9 mph 3.4 mph 84% 0.00 in
07:56 38.5 °F 34.1 °F 29.59 in SE 1.0 mph 2.3 mph 84% 0.00 in
08:01 38.9 °F 33.9 °F 29.59 in SW 1.3 mph 2.3 mph 82% 0.00 in
08:06 39.5 °F 34.5 °F 29.59 in SW 1.1 mph 2.3 mph 82% 0.00 in
08:11 39.8 °F 34.8 °F 29.59 in SSE 1.0 mph 2.3 mph 82% 0.00 in
08:16 40.0 °F 34.6 °F 29.59 in SSE 1.6 mph 2.3 mph 81% 0.00 in
08:21 40.4 °F 34.4 °F 29.59 in WNW 1.7 mph 3.4 mph 79% 0.00 in
08:26 40.8 °F 34.5 °F 29.60 in SSW 1.1 mph 2.3 mph 78% 0.00 in
08:31 41.2 °F 34.9 °F 29.60 in SW 1.3 mph 3.4 mph 78% 0.00 in
08:36 41.7 °F 34.7 °F 29.60 in SSE 1.9 mph 4.6 mph 76% 0.00 in
08:41 42.0 °F 34.6 °F 29.60 in West 1.9 mph 5.8 mph 75% 0.00 in
08:46 42.4 °F 35.0 °F 29.60 in SSE 1.7 mph 3.4 mph 75% 0.00 in
08:51 42.8 °F 34.7 °F 29.60 in South 1.2 mph 3.0 mph 73% 0.00 in
08:56 42.9 °F 33.8 °F 29.60 in SSW 1.4 mph 3.4 mph 70% 0.00 in
09:01 42.9 °F 33.8 °F 29.60 in WSW 2.3 mph 7.0 mph 70% 0.00 in
09:06 43.1 °F 33.6 °F 29.61 in SW 2.2 mph 6.9 mph 69% 0.00 in
09:11 43.1 °F 32.5 °F 29.61 in WSW 2.0 mph 3.4 mph 66% 0.00 in
09:16 43.1 °F 31.7 °F 29.61 in WSW 2.4 mph 3.4 mph 64% 0.00 in
09:21 43.1 °F 31.7 °F 29.61 in SSE 1.2 mph 4.6 mph 64% 0.00 in
09:26 42.7 °F 31.0 °F 29.61 in East 2.1 mph 4.6 mph 63% 0.00 in
09:31 42.3 °F 31.0 °F 29.61 in SSW 1.8 mph 2.3 mph 64% 0.00 in
09:36 42.1 °F 31.9 °F 29.61 in SW 1.4 mph 3.4 mph 67% 0.00 in
09:41 42.4 °F 31.5 °F 29.62 in WSW 1.7 mph 3.4 mph 65% 0.00 in
09:46 42.6 °F 31.3 °F 29.62 in SSE 1.8 mph 4.6 mph 64% 0.00 in
09:51 42.9 °F 30.0 °F 29.62 in NW 4.3 mph 8.1 mph 60% 0.00 in
09:56 42.3 °F 28.6 °F 29.62 in West 2.8 mph 6.9 mph 58% 0.00 in
10:01 42.1 °F 28.4 °F 29.62 in West 1.8 mph 3.4 mph 58% 0.00 in
10:06 41.7 °F 27.6 °F 29.62 in West 6.5 mph 11.5 mph 57% 0.00 in
10:11 41.6 °F 27.9 °F 29.62 in NW 8.3 mph 14.9 mph 58% 0.00 in
10:16 41.6 °F 28.3 °F 29.61 in SW 1.5 mph 2.3 mph 59% 0.00 in
10:21 41.6 °F 27.5 °F 29.61 in South 2.1 mph 3.4 mph 57% 0.00 in
10:26 41.6 °F 27.9 °F 29.61 in SE 1.9 mph 5.8 mph 58% 0.00 in
10:31 41.6 °F 27.9 °F 29.61 in WNW 3.4 mph 9.0 mph 58% 0.00 in
10:36 41.3 °F 28.0 °F 29.61 in WNW 1.1 mph 3.4 mph 59% 0.00 in
10:41 41.3 °F 28.4 °F 29.60 in WNW 2.7 mph 6.0 mph 60% 0.00 in
10:46 41.5 °F 28.2 °F 29.60 in West 2.1 mph 3.4 mph 59% 0.00 in
10:51 41.6 °F 28.7 °F 29.60 in NW 2.7 mph 6.9 mph 60% 0.00 in
10:56 42.1 °F 28.4 °F 29.60 in West 3.2 mph 5.8 mph 58% 0.00 in
11:01 42.1 °F 27.9 °F 29.60 in WNW 1.7 mph 3.4 mph 57% 0.00 in
11:06 42.3 °F 28.6 °F 29.60 in NW 2.5 mph 6.9 mph 58% 0.00 in
11:11 42.1 °F 27.9 °F 29.60 in WSW 4.9 mph 10.3 mph 57% 0.00 in
11:16 41.9 °F 26.9 °F 29.60 in WNW 6.2 mph 16.1 mph 55% 0.00 in
11:21 42.3 °F 26.8 °F 29.59 in SSW 1.9 mph 3.4 mph 54% 0.00 in
11:26 42.7 °F 27.2 °F 29.60 in SW 1.5 mph 3.4 mph 54% 0.00 in
11:31 43.8 °F 27.3 °F 29.60 in SW 1.7 mph 2.3 mph 52% 0.00 in
11:36 44.5 °F 27.5 °F 29.59 in NW 0.7 mph 5.8 mph 51% 0.00 in
11:41 45.1 °F 26.6 °F 29.59 in West 1.7 mph 3.4 mph 48% 0.00 in
11:46 44.1 °F 26.6 °F 29.58 in NW 3.3 mph 8.1 mph 50% 0.00 in
11:51 42.7 °F 25.8 °F 29.59 in West 5.8 mph 11.5 mph 51% 0.00 in
11:56 41.6 °F 24.3 °F 29.59 in WNW 8.5 mph 16.1 mph 50% 0.00 in
12:01 40.8 °F 23.1 °F 29.60 in NW 9.6 mph 17.3 mph 49% 0.00 in
12:06 40.6 °F 23.9 °F 29.59 in WNW 5.1 mph 13.8 mph 51% 0.00 in
12:11 40.2 °F 24.0 °F 29.59 in NW 3.8 mph 11.5 mph 52% 0.00 in
12:16 39.9 °F 23.7 °F 29.59 in SW 4.7 mph 9.2 mph 52% 0.00 in
12:21 41.0 °F 23.8 °F 29.59 in South 2.6 mph 5.8 mph 50% 0.00 in
12:26 41.9 °F 24.1 °F 29.59 in SW 3.1 mph 10.3 mph 49% 0.00 in
12:31 42.5 °F 24.7 °F 29.58 in SW 1.3 mph 2.3 mph 49% 0.00 in
12:36 43.1 °F 21.0 °F 29.58 in NW 6.5 mph 12.0 mph 41% 0.00 in
12:41 42.8 °F 20.1 °F 29.59 in SW 3.0 mph 4.6 mph 40% 0.00 in
12:46 42.4 °F 20.3 °F 29.58 in WNW 6.0 mph 16.1 mph 41% 0.00 in
12:51 41.9 °F 19.3 °F 29.59 in WNW 7.3 mph 13.8 mph 40% 0.00 in
12:56 41.3 °F 19.3 °F 29.58 in WSW 6.9 mph 20.7 mph 41% 0.00 in
13:01 41.6 °F 19.6 °F 29.58 in NNW 2.7 mph 5.8 mph 41% 0.00 in
13:06 42.2 °F 19.0 °F 29.59 in West 3.6 mph 9.2 mph 39% 0.00 in
13:11 42.6 °F 18.7 °F 29.58 in NW 6.6 mph 19.5 mph 38% 0.00 in
13:16 42.8 °F 17.7 °F 29.58 in WNW 7.5 mph 16.1 mph 36% 0.00 in
13:21 43.4 °F 18.2 °F 29.58 in South 2.5 mph 11.5 mph 36% 0.00 in
13:26 43.6 °F 18.4 °F 29.58 in WSW 6.2 mph 11.5 mph 36% 0.00 in
13:31 43.3 °F 18.7 °F 29.58 in WSW 2.2 mph 3.4 mph 37% 0.00 in
13:36 43.6 °F 18.4 °F 29.58 in SE 2.0 mph 5.8 mph 36% 0.00 in
13:41 43.8 °F 19.2 °F 29.58 in NNW 2.2 mph 6.9 mph 37% 0.00 in
13:46 42.9 °F 19.0 °F 29.59 in WSW 1.9 mph 5.8 mph 38% 0.00 in
13:51 42.4 °F 19.2 °F 29.59 in SW 2.7 mph 5.8 mph 39% 0.00 in
13:56 42.6 °F 18.7 °F 29.59 in WNW 2.7 mph 10.0 mph 38% 0.00 in
14:01 42.3 °F 19.7 °F 29.59 in NW 2.8 mph 7.0 mph 40% 0.00 in
14:06 42.1 °F 18.9 °F 29.59 in WNW 1.8 mph 3.4 mph 39% 0.00 in
14:11 41.9 °F 19.3 °F 29.59 in WSW 2.6 mph 9.2 mph 40% 0.00 in
14:16 41.9 °F 19.3 °F 29.59 in SW 3.0 mph 8.1 mph 40% 0.00 in
14:21 41.8 °F 18.6 °F 29.59 in WSW 4.7 mph 11.5 mph 39% 0.00 in
14:26 41.9 °F 18.7 °F 29.59 in SW 5.3 mph 10.3 mph 39% 0.00 in
14:31 41.9 °F 19.3 °F 29.60 in WNW 1.3 mph 11.5 mph 40% 0.00 in
14:36 41.4 °F 18.9 °F 29.60 in NW 3.8 mph 6.9 mph 40% 0.00 in
14:41 41.1 °F 19.2 °F 29.60 in WNW 2.6 mph 4.6 mph 41% 0.00 in
14:46 40.8 °F 18.9 °F 29.60 in WNW 1.5 mph 3.4 mph 41% 0.00 in
14:51 40.6 °F 18.7 °F 29.60 in NNW 2.5 mph 4.6 mph 41% 0.00 in
14:56 40.6 °F 18.7 °F 29.60 in NW 1.2 mph 3.4 mph 41% 0.00 in
15:01 40.6 °F 19.3 °F 29.60 in North 2.8 mph 4.6 mph 42% 0.00 in
15:06 40.6 °F 19.3 °F 29.60 in SSW 2.9 mph 6.9 mph 42% 0.00 in
15:11 40.8 °F 18.3 °F 29.60 in NW 3.5 mph 5.0 mph 40% 0.00 in
15:16 40.8 °F 18.3 °F 29.61 in NW 4.0 mph 11.5 mph 40% 0.00 in
15:21 40.8 °F 17.7 °F 29.61 in West 7.3 mph 11.5 mph 39% 0.00 in
15:26 40.8 °F 17.7 °F 29.61 in WNW 7.2 mph 14.0 mph 39% 0.00 in
15:31 40.7 °F 17.0 °F 29.61 in NW 3.6 mph 9.2 mph 38% 0.00 in
15:36 40.4 °F 18.0 °F 29.61 in WNW 2.0 mph 6.9 mph 40% 0.00 in
15:41 40.0 °F 18.2 °F 29.62 in NNW 5.7 mph 9.2 mph 41% 0.00 in
15:46 39.8 °F 18.0 °F 29.62 in NW 4.3 mph 9.0 mph 41% 0.00 in
15:51 39.6 °F 17.8 °F 29.62 in WNW 3.8 mph 3.8 mph 41% 0.00 in
15:56 39.4 °F 17.6 °F 29.62 in NNW 3.3 mph 6.0 mph 41% 0.00 in
16:01 39.2 °F 17.4 °F 29.62 in NW 2.6 mph 6.0 mph 41% 0.00 in
16:06 39.0 °F 17.3 °F 29.62 in NNW 1.9 mph 5.8 mph 41% 0.00 in
16:11 38.9 °F 17.2 °F 29.63 in WNW 2.5 mph 4.6 mph 41% 0.00 in
16:16 38.9 °F 17.2 °F 29.63 in West 1.8 mph 5.8 mph 41% 0.00 in
16:21 38.7 °F 17.0 °F 29.63 in NW 1.7 mph 3.4 mph 41% 0.00 in
16:26 38.3 °F 17.2 °F 29.63 in West 0.9 mph 3.4 mph 42% 0.00 in
16:31 38.1 °F 17.0 °F 29.63 in NW 1.6 mph 3.4 mph 42% 0.00 in
16:36 37.9 °F 17.4 °F 29.64 in West 0.4 mph 2.3 mph 43% 0.00 in
16:41 37.8 °F 17.3 °F 29.64 in West 0.4 mph 2.0 mph 43% 0.00 in
16:46 37.7 °F 17.7 °F 29.64 in Calm   1.1 mph 44% 0.00 in
16:51 37.4 °F 17.4 °F 29.64 in Calm     44% 0.00 in
16:56 36.9 °F 17.5 °F 29.64 in Calm     45% 0.00 in
17:01 36.7 °F 17.8 °F 29.64 in SSE 0.9 mph 2.3 mph 46% 0.00 in
17:06 36.5 °F 18.2 °F 29.64 in SW 0.2 mph 1.0 mph 47% 0.00 in
17:11 36.2 °F 17.9 °F 29.65 in WSW 0.4 mph 1.1 mph 47% 0.00 in
17:16 35.9 °F 18.1 °F 29.65 in West 0.2 mph 1.0 mph 48% 0.00 in
17:21 35.7 °F 18.4 °F 29.65 in Calm     49% 0.00 in
17:26 35.5 °F 18.2 °F 29.66 in South 1.6 mph 2.3 mph 49% 0.00 in
17:31 35.3 °F 18.5 °F 29.65 in South 0.5 mph 1.1 mph 50% 0.00 in
17:36 35.1 °F 18.8 °F 29.66 in South 0.8 mph 2.3 mph 51% 0.00 in
17:41 34.8 °F 18.5 °F 29.66 in Calm     51% 0.00 in
17:46 34.4 °F 18.6 °F 29.66 in Calm     52% 0.00 in
17:51 34.3 °F 18.5 °F 29.66 in SSW 0.5 mph 2.3 mph 52% 0.00 in
17:56 34.1 °F 19.2 °F 29.66 in Calm     54% 0.00 in
18:01 33.6 °F 18.7 °F 29.66 in SSW 0.2 mph 1.1 mph 54% 0.00 in
18:06 33.3 °F 18.4 °F 29.66 in Calm   1.1 mph 54% 0.00 in
18:11 33.7 °F 18.4 °F 29.66 in NNE 0.5 mph 3.0 mph 53% 0.00 in
18:16 34.3 °F 19.4 °F 29.66 in SSE 0.9 mph 2.0 mph 54% 0.00 in
18:21 34.8 °F 18.5 °F 29.66 in NW 0.9 mph 2.3 mph 51% 0.00 in
18:26 35.7 °F 18.4 °F 29.67 in SW 1.6 mph 4.6 mph 49% 0.00 in
18:31 36.5 °F 19.1 °F 29.67 in SW 0.8 mph 2.3 mph 49% 0.00 in
18:36 36.5 °F 19.1 °F 29.67 in WSW 0.5 mph 2.3 mph 49% 0.00 in
18:41 36.7 °F 19.3 °F 29.68 in NW 1.6 mph 5.8 mph 49% 0.00 in
18:46 36.9 °F 19.0 °F 29.68 in SW 1.0 mph 3.4 mph 48% 0.00 in
18:51 37.2 °F 19.3 °F 29.68 in NW 0.9 mph 2.3 mph 48% 0.00 in
18:56 37.4 °F 19.5 °F 29.68 in NNW 0.2 mph 1.1 mph 48% 0.00 in
19:01 37.4 °F 19.5 °F 29.68 in WSW 1.2 mph 2.3 mph 48% 0.00 in
19:06 37.3 °F 19.9 °F 29.68 in SSW 0.6 mph 2.3 mph 49% 0.00 in
19:11 37.0 °F 20.1 °F 29.68 in West 0.6 mph 3.0 mph 50% 0.00 in
19:16 36.8 °F 19.9 °F 29.68 in West 1.6 mph 9.2 mph 50% 0.00 in
19:21 36.7 °F 19.8 °F 29.69 in West 0.9 mph 3.4 mph 50% 0.00 in
19:26 36.5 °F 20.1 °F 29.69 in SSW 0.5 mph 2.3 mph 51% 0.00 in
19:31 36.4 °F 20.4 °F 29.69 in SSW 0.3 mph 2.3 mph 52% 0.00 in
19:36 36.4 °F 20.4 °F 29.69 in NNW 1.1 mph 2.3 mph 52% 0.00 in
19:41 36.4 °F 20.9 °F 29.69 in SSW 0.7 mph 1.1 mph 53% 0.00 in
19:46 36.6 °F 20.6 °F 29.69 in SSE 0.8 mph 1.1 mph 52% 0.00 in
19:51 36.6 °F 21.1 °F 29.70 in SSW 1.2 mph 2.3 mph 53% 0.00 in
19:56 36.6 °F 21.1 °F 29.69 in SSE 0.9 mph 2.3 mph 53% 0.00 in
20:01 36.5 °F 21.0 °F 29.70 in South 0.4 mph 2.3 mph 53% 0.00 in
20:06 36.4 °F 21.3 °F 29.69 in WSW 0.3 mph 2.0 mph 54% 0.00 in
20:11 36.1 °F 21.0 °F 29.69 in WSW 1.2 mph 2.3 mph 54% 0.00 in
20:16 35.7 °F 20.7 °F 29.69 in SE 0.1 mph 1.1 mph 54% 0.00 in
20:21 35.4 °F 20.8 °F 29.69 in Calm   2.3 mph 55% 0.00 in
20:26 34.9 °F 20.8 °F 29.69 in West 0.5 mph 1.1 mph 56% 0.00 in
20:31 34.3 °F 21.0 °F 29.69 in Calm     58% 0.00 in
20:36 34.0 °F 20.8 °F 29.69 in WNW 0.4 mph 2.3 mph 58% 0.00 in
20:41 33.9 °F 20.7 °F 29.69 in South 1.0 mph 2.3 mph 58% 0.00 in
20:46 33.9 °F 20.7 °F 29.69 in West 1.6 mph 2.3 mph 58% 0.00 in
20:51 34.3 °F 20.6 °F 29.69 in SW 1.2 mph 2.3 mph 57% 0.00 in
20:56 34.3 °F 20.2 °F 29.69 in SW 1.0 mph 2.3 mph 56% 0.00 in
21:01 34.4 °F 19.9 °F 29.69 in WSW 1.0 mph 2.3 mph 55% 0.00 in
21:06 34.3 °F 20.2 °F 29.69 in Calm     56% 0.00 in
21:11 33.9 °F 20.3 °F 29.69 in SE 0.4 mph 2.3 mph 57% 0.00 in
21:16 34.0 °F 20.3 °F 29.69 in SE 0.6 mph 2.3 mph 57% 0.00 in
21:21 33.9 °F 20.3 °F 29.69 in South 1.2 mph 2.3 mph 57% 0.00 in
21:26 34.0 °F 20.3 °F 29.69 in WSW 0.6 mph 2.3 mph 57% 0.00 in
21:31 33.9 °F 20.3 °F 29.69 in WSW 0.1 mph 2.3 mph 57% 0.00 in
21:36 33.8 °F 20.2 °F 29.69 in Calm   1.1 mph 57% 0.00 in
21:41 33.7 °F 20.9 °F 29.69 in South 0.6 mph   59% 0.00 in
21:46 34.0 °F 20.3 °F 29.69 in SSE 0.2 mph 2.0 mph 57% 0.00 in
21:51 33.9 °F 20.3 °F 29.69 in WSW 0.4 mph 2.3 mph 57% 0.00 in
21:56 33.7 °F 20.9 °F 29.69 in WSW 0.1 mph 1.1 mph 59% 0.00 in
22:01 33.3 °F 20.9 °F 29.69 in South 0.9 mph 2.3 mph 60% 0.00 in
22:06 33.2 °F 20.0 °F 29.69 in WSW 1.5 mph 2.3 mph 58% 0.00 in
22:11 33.3 °F 20.1 °F 29.69 in SW 0.7 mph 2.3 mph 58% 0.00 in
22:16 33.4 °F 20.2 °F 29.69 in South 0.2 mph 2.3 mph 58% 0.00 in
22:21 33.3 °F 20.1 °F 29.69 in South 0.5 mph 1.1 mph 58% 0.00 in
22:26 33.0 °F 20.2 °F 29.69 in WSW 1.4 mph 3.4 mph 59% 0.00 in
22:31 32.9 °F 20.1 °F 29.69 in Calm   2.3 mph 59% 0.00 in
22:36 32.7 °F 19.9 °F 29.69 in SSW 1.6 mph 3.4 mph 59% 0.00 in
22:37 32.7 °F 19.9 °F 29.69 in NW 1.5 mph 2.3 mph 59% 0.00 in
22:42 32.7 °F 19.9 °F 29.69 in NW 0.9 mph 2.3 mph 59% 0.00 in
22:47 32.6 °F 19.4 °F 29.69 in West 0.3 mph 2.3 mph 58% 0.00 in
22:52 32.5 °F 19.7 °F 29.69 in West 1.8 mph 2.3 mph 59% 0.00 in
22:57 32.6 °F 19.4 °F 29.69 in SSW 1.1 mph 2.3 mph 58% 0.00 in
23:02 32.5 °F 19.3 °F 29.69 in WSW 1.2 mph 3.4 mph 58% 0.00 in
23:07 32.4 °F 19.7 °F 29.69 in NW 0.3 mph 1.1 mph 59% 0.00 in
23:12 32.3 °F 19.6 °F 29.69 in West 0.3 mph 1.1 mph 59% 0.00 in
23:17 32.1 °F 19.8 °F 29.69 in SW 0.7 mph 2.3 mph 60% 0.00 in
23:22 31.9 °F 19.6 °F 29.69 in SE 1.3 mph 4.6 mph 60% 0.00 in
23:27 31.9 °F 19.6 °F 29.69 in NW 1.1 mph 2.3 mph 60% 0.00 in
23:32 31.9 °F 19.6 °F 29.69 in WSW 0.2 mph 1.1 mph 60% 0.00 in
23:37 31.9 °F 19.2 °F 29.69 in WSW 0.9 mph 2.3 mph 59% 0.00 in
23:42 32.0 °F 19.7 °F 29.69 in SSW 1.3 mph 2.3 mph 60% 0.00 in
23:47 31.9 °F 19.6 °F 29.69 in NW 2.7 mph 4.0 mph 60% 0.00 in
23:52 32.1 °F 19.4 °F 29.69 in NW 1.2 mph 2.3 mph 59% 0.00 in
23:57 32.1 °F 19.8 °F 29.68 in WSW 1.5 mph 2.3 mph 60% 0.00 in
Medfield, Massachusetts, USA
Compliments of Weather Underground